createdAt,value
2018-06-27T00:00:38.519Z,97134.79
2018-06-27T00:03:06.230Z,97135.71
2018-06-27T00:05:33.594Z,97133.98
2018-06-27T00:08:00.865Z,97126.38
2018-06-27T00:10:28.251Z,97125.75
2018-06-27T00:12:55.568Z,97133.42
2018-06-27T00:15:23.017Z,97128.58
2018-06-27T00:17:50.272Z,97133.91
2018-06-27T00:20:17.579Z,97127.52
2018-06-27T00:22:45.312Z,97123.30
2018-06-27T00:25:12.580Z,97124.51
2018-06-27T00:27:39.965Z,97124.15
2018-06-27T00:30:07.295Z,97126.70
2018-06-27T00:32:34.568Z,97119.00
2018-06-27T00:35:01.938Z,97114.71
2018-06-27T00:37:29.243Z,97114.39
2018-06-27T00:39:56.621Z,97120.15
2018-06-27T00:42:23.948Z,97114.91
2018-06-27T00:44:51.251Z,97113.66
2018-06-27T00:47:18.515Z,97114.15
2018-06-27T00:49:45.683Z,97120.08
2018-06-27T00:52:14.208Z,97112.80
2018-06-27T00:54:41.485Z,97117.73
2018-06-27T00:57:08.870Z,97116.62
2018-06-27T00:59:36.192Z,97112.50
2018-06-27T01:02:03.579Z,97111.55
2018-06-27T01:04:30.896Z,97105.78
2018-06-27T01:06:58.097Z,97108.86
2018-06-27T01:09:25.427Z,97102.33
2018-06-27T01:11:52.699Z,97111.13
2018-06-27T01:14:28.795Z,97106.42
2018-06-27T01:16:56.170Z,97104.22
2018-06-27T01:19:23.429Z,97101.06
2018-06-27T01:21:50.774Z,97101.38
2018-06-27T01:24:18.141Z,97097.09
2018-06-27T01:26:45.492Z,97099.00
2018-06-27T01:29:12.790Z,97090.78
2018-06-27T01:31:40.162Z,97091.69
2018-06-27T01:34:07.681Z,97094.11
2018-06-27T01:36:35.024Z,97092.59
2018-06-27T01:39:05.234Z,97097.19
2018-06-27T01:41:32.532Z,97101.26
2018-06-27T01:44:00.239Z,97102.84
2018-06-27T01:46:27.517Z,97103.39
2018-06-27T01:48:54.823Z,97103.44
2018-06-27T01:51:26.075Z,97103.61
2018-06-27T01:53:53.435Z,97103.07
2018-06-27T01:56:20.734Z,97100.14
2018-06-27T01:58:48.028Z,97100.09
2018-06-27T02:01:15.327Z,97102.53
2018-06-27T02:03:42.561Z,97094.48
2018-06-27T02:06:09.878Z,97102.02
2018-06-27T02:08:37.168Z,97100.75
2018-06-27T02:11:04.517Z,97093.89
2018-06-27T02:13:31.753Z,97094.30
2018-06-27T02:15:59.096Z,97101.38
2018-06-27T02:18:26.290Z,97093.66
2018-06-27T02:20:53.568Z,97095.59
2018-06-27T02:23:20.821Z,97095.96
2018-06-27T02:25:48.201Z,97093.20
2018-06-27T02:28:15.500Z,97094.69
2018-06-27T02:30:42.901Z,97101.08
2018-06-27T02:33:14.684Z,97099.86
2018-06-27T02:35:41.983Z,97095.45
2018-06-27T02:38:09.268Z,97092.20
2018-06-27T02:40:37.152Z,97095.67
2018-06-27T02:43:05.925Z,97099.05
2018-06-27T02:45:33.294Z,97095.48
2018-06-27T02:48:00.591Z,97105.19
2018-06-27T02:50:27.968Z,97112.22
2018-06-27T02:52:55.232Z,97118.27
2018-06-27T02:55:23.419Z,97118.27
2018-06-27T02:57:50.772Z,97118.20
2018-06-27T03:00:18.140Z,97121.80
2018-06-27T03:02:46.351Z,97124.80
2018-06-27T03:05:13.659Z,97132.95
2018-06-27T03:07:41.166Z,97138.19
2018-06-27T03:10:08.542Z,97140.98
2018-06-27T03:12:35.848Z,97145.84
2018-06-27T03:15:05.123Z,97145.97
2018-06-27T03:17:41.857Z,97143.08
2018-06-27T03:20:11.415Z,97142.30
2018-06-27T03:22:50.045Z,97138.75
2018-06-27T03:25:17.804Z,97138.56
2018-06-27T03:27:45.090Z,97142.39
2018-06-27T03:30:12.458Z,97137.98
2018-06-27T03:32:39.704Z,97137.83
2018-06-27T03:35:07.014Z,97134.38
2018-06-27T03:40:26.535Z,97128.05
2018-06-27T03:42:54.008Z,97132.41
2018-06-27T03:45:30.446Z,97135.52
2018-06-27T03:47:57.737Z,97134.87
2018-06-27T03:50:25.092Z,97140.27
2018-06-27T03:52:52.418Z,97136.47
2018-06-27T03:55:19.747Z,97139.24
2018-06-27T03:57:47.129Z,97139.80
2018-06-27T04:00:14.440Z,97143.81
2018-06-27T04:02:41.804Z,97148.09
2018-06-27T04:05:09.081Z,97147.52
2018-06-27T04:07:36.496Z,97143.59
2018-06-27T04:10:03.854Z,97145.95
2018-06-27T04:12:31.157Z,97150.56
2018-06-27T04:15:04.048Z,97146.94
2018-06-27T04:17:31.346Z,97154.04
2018-06-27T04:19:58.627Z,97158.11
2018-06-27T04:22:36.562Z,97162.48
2018-06-27T04:25:04.333Z,97162.12
2018-06-27T04:27:33.897Z,97155.43
2018-06-27T04:30:04.409Z,97158.57
2018-06-27T04:32:31.802Z,97152.95
2018-06-27T04:35:11.221Z,97148.93
2018-06-27T04:37:50.136Z,97156.05
2018-06-27T04:40:17.558Z,97155.58
2018-06-27T04:42:44.871Z,97160.38
2018-06-27T04:45:12.176Z,97162.03
2018-06-27T04:47:39.506Z,97163.80
2018-06-27T04:50:06.796Z,97170.58
2018-06-27T04:52:34.371Z,97169.07
2018-06-27T04:55:01.695Z,97178.27
2018-06-27T04:57:29.001Z,97178.69
2018-06-27T04:59:56.250Z,97176.03
2018-06-27T05:02:24.196Z,97188.13
2018-06-27T05:04:51.884Z,97185.41
2018-06-27T05:07:19.220Z,97186.29
2018-06-27T05:09:46.484Z,97184.73
2018-06-27T05:12:13.762Z,97178.91
2018-06-27T05:14:41.361Z,97178.68
2018-06-27T05:17:09.063Z,97175.73
2018-06-27T05:19:39.959Z,97172.36
2018-06-27T05:22:07.332Z,97172.84
2018-06-27T05:24:34.615Z,97169.22
2018-06-27T05:27:02.057Z,97171.59
2018-06-27T05:29:29.372Z,97172.87
2018-06-27T05:31:56.838Z,97176.20
2018-06-27T05:34:24.301Z,97177.27
2018-06-27T05:36:51.724Z,97187.98
2018-06-27T05:39:19.085Z,97192.93
2018-06-27T05:41:48.299Z,97191.73
2018-06-27T05:44:16.048Z,97193.37
2018-06-27T05:46:43.399Z,97189.16
2018-06-27T05:49:10.794Z,97190.83
2018-06-27T05:51:38.220Z,97197.64
2018-06-27T05:54:05.667Z,97195.39
2018-06-27T05:56:32.970Z,97196.43
2018-06-27T05:59:00.352Z,97199.05
2018-06-27T06:01:27.659Z,97201.58
2018-06-27T06:03:54.981Z,97202.78
2018-06-27T06:06:22.339Z,97199.25
2018-06-27T06:08:49.662Z,97198.63
2018-06-27T06:11:16.931Z,97192.41
2018-06-27T06:13:44.173Z,97201.80
2018-06-27T06:16:11.433Z,97203.05
2018-06-27T06:18:38.792Z,97200.23
2018-06-27T06:21:06.077Z,97199.94
2018-06-27T06:23:33.316Z,97192.84
2018-06-27T06:26:00.595Z,97197.34
2018-06-27T06:28:27.962Z,97201.39
2018-06-27T06:30:55.228Z,97203.75
2018-06-27T06:33:22.488Z,97191.54
2018-06-27T06:35:49.782Z,97193.78
2018-06-27T06:38:17.088Z,97203.73
2018-06-27T06:40:44.418Z,97199.64
2018-06-27T06:43:11.708Z,97196.30
2018-06-27T06:45:39.138Z,97196.39
2018-06-27T06:48:06.518Z,97192.20
2018-06-27T06:50:33.792Z,97185.02
2018-06-27T06:53:01.078Z,97184.02
2018-06-27T06:55:29.575Z,97176.17
2018-06-27T06:57:56.939Z,97183.75
2018-06-27T07:00:24.481Z,97182.70
2018-06-27T07:02:51.854Z,97185.35
2018-06-27T07:05:19.130Z,97189.00
2018-06-27T07:07:47.150Z,97193.39
2018-06-27T07:10:14.475Z,97191.98
2018-06-27T07:12:41.691Z,97188.14
2018-06-27T07:15:08.984Z,97190.28
2018-06-27T07:17:36.440Z,97189.97
2018-06-27T07:20:03.868Z,97185.27
2018-06-27T07:22:31.298Z,97187.56
2018-06-27T07:24:58.663Z,97183.70
2018-06-27T07:27:25.939Z,97180.19
2018-06-27T07:29:53.237Z,97182.16
2018-06-27T07:32:20.561Z,97176.72
2018-06-27T07:34:47.863Z,97177.89
2018-06-27T07:37:15.312Z,97173.48
2018-06-27T07:39:42.575Z,97176.30
2018-06-27T07:42:10.053Z,97174.63
2018-06-27T07:44:37.515Z,97175.67
2018-06-27T07:47:05.009Z,97172.63
2018-06-27T07:49:32.300Z,97168.38
2018-06-27T07:52:00.064Z,97162.43
2018-06-27T07:57:02.207Z,97163.98
2018-06-27T07:59:29.750Z,97163.92
2018-06-27T08:01:57.182Z,97166.37
2018-06-27T08:04:24.517Z,97163.13
2018-06-27T08:06:51.863Z,97162.66
2018-06-27T08:09:19.287Z,97143.80
2018-06-27T08:11:46.681Z,97166.94
2018-06-27T08:14:14.343Z,97163.95
2018-06-27T08:16:41.777Z,97155.44
2018-06-27T08:19:14.388Z,97152.44
2018-06-27T08:21:55.008Z,97149.63
2018-06-27T08:24:22.249Z,97145.80
2018-06-27T08:26:49.707Z,97141.05
2018-06-27T08:29:17.090Z,97134.98
2018-06-27T08:31:44.500Z,97131.33
2018-06-27T08:34:11.772Z,97131.45
2018-06-27T08:36:39.941Z,97134.28
2018-06-27T08:39:08.284Z,97122.33
2018-06-27T08:41:35.589Z,97127.66
2018-06-27T08:44:03.025Z,97118.94
2018-06-27T08:46:30.458Z,97121.14
2018-06-27T08:48:57.832Z,97122.33
2018-06-27T08:51:25.175Z,97118.45
2018-06-27T08:53:52.640Z,97109.08
2018-06-27T08:56:20.733Z,97115.58
2018-06-27T08:58:48.096Z,97119.18
2018-06-27T09:01:15.459Z,97115.51
2018-06-27T09:03:42.966Z,97116.55
2018-06-27T09:06:10.419Z,97117.98
2018-06-27T09:08:37.840Z,97115.34
2018-06-27T09:11:05.242Z,97109.59
2018-06-27T09:13:32.604Z,97112.40
2018-06-27T09:15:59.897Z,97125.19
2018-06-27T09:18:27.247Z,97110.78
2018-06-27T09:23:49.014Z,97105.89
2018-06-27T09:26:16.737Z,97110.59
2018-06-27T09:28:44.266Z,97103.88
2018-06-27T09:31:15.949Z,97115.48
2018-06-27T09:33:47.928Z,97105.27
2018-06-27T09:36:15.548Z,97014.89
2018-06-27T09:38:43.402Z,97107.55
2018-06-27T09:41:10.885Z,97102.39
2018-06-27T09:43:38.317Z,97093.61
2018-06-27T09:46:05.957Z,97100.62
2018-06-27T09:48:33.445Z,97093.89
2018-06-27T09:51:00.925Z,97096.50
2018-06-27T09:53:28.303Z,97091.94
2018-06-27T09:55:55.613Z,97087.77
2018-06-27T09:58:23.088Z,97085.17
2018-06-27T10:01:02.877Z,97079.98
2018-06-27T10:03:31.718Z,97076.42
2018-06-27T10:05:59.026Z,97079.74
2018-06-27T10:08:26.249Z,97079.59
2018-06-27T10:10:53.543Z,97078.28
2018-06-27T10:13:20.844Z,97077.98
2018-06-27T10:15:48.148Z,97077.52
2018-06-27T10:18:15.453Z,97072.31
2018-06-27T10:20:42.806Z,97079.36
2018-06-27T10:23:10.121Z,97079.57
2018-06-27T10:25:37.542Z,97069.41
2018-06-27T10:28:08.213Z,97068.20
2018-06-27T10:30:35.704Z,97068.29
2018-06-27T10:33:03.146Z,97064.89
2018-06-27T10:35:31.040Z,97063.81
2018-06-27T10:37:58.554Z,97060.57
2018-06-27T10:40:26.584Z,97061.91
2018-06-27T10:42:54.410Z,97050.09
2018-06-27T10:45:21.781Z,97055.53
2018-06-27T10:47:49.265Z,97057.05
2018-06-27T10:50:16.952Z,97049.76
2018-06-27T10:52:44.232Z,97049.25
2018-06-27T10:55:18.521Z,97046.42
2018-06-27T10:57:54.072Z,97044.55
2018-06-27T11:00:22.843Z,97040.66
2018-06-27T11:02:50.198Z,97046.84
2018-06-27T11:05:17.545Z,97040.34
2018-06-27T11:07:44.898Z,97032.98
2018-06-27T11:10:12.292Z,97031.34
2018-06-27T11:12:39.711Z,97032.61
2018-06-27T11:15:07.777Z,97031.69
2018-06-27T11:17:36.103Z,97024.08
2018-06-27T11:20:03.633Z,97020.98
2018-06-27T11:22:32.125Z,97014.27
2018-06-27T11:24:59.436Z,97022.95
2018-06-27T11:27:26.744Z,97028.98
2018-06-27T11:29:54.062Z,97020.79
2018-06-27T11:32:21.320Z,97020.89
2018-06-27T11:34:49.030Z,97026.36
2018-06-27T11:37:26.568Z,97022.34
2018-06-27T11:42:32.969Z,97009.36
2018-06-27T11:45:00.704Z,97005.36
2018-06-27T11:47:27.954Z,97004.25
2018-06-27T11:49:55.311Z,97017.81
2018-06-27T11:52:22.678Z,96987.17
2018-06-27T11:54:55.810Z,97000.09
2018-06-27T11:57:31.586Z,96996.63
2018-06-27T11:59:59.232Z,96998.09
2018-06-27T12:02:26.628Z,96989.57
2018-06-27T12:04:54.044Z,96990.87
2018-06-27T12:07:21.341Z,96986.34
2018-06-27T12:09:48.670Z,96989.05
2018-06-27T12:12:16.014Z,96989.61
2018-06-27T12:14:47.620Z,96984.81
2018-06-27T12:17:14.964Z,96984.61
2018-06-27T12:19:42.255Z,96984.73
2018-06-27T12:22:09.617Z,96983.70
2018-06-27T12:24:36.919Z,96981.51
2018-06-27T12:27:04.217Z,96977.38
2018-06-27T12:29:31.528Z,96974.36
2018-06-27T12:31:58.828Z,96979.53
2018-06-27T12:34:31.292Z,96975.21
2018-06-27T12:36:58.572Z,96961.97
2018-06-27T12:39:25.858Z,96966.08
2018-06-27T12:41:53.139Z,96966.20
2018-06-27T12:44:23.895Z,96971.20
2018-06-27T12:46:51.313Z,96965.13
2018-06-27T12:49:18.673Z,96969.86
2018-06-27T12:51:45.993Z,96953.59
2018-06-27T12:54:13.345Z,96964.34
2018-06-27T12:56:40.721Z,96954.16
2018-06-27T12:59:07.977Z,96956.67
2018-06-27T13:01:35.290Z,96950.06
2018-06-27T13:04:02.731Z,96950.52
2018-06-27T13:06:30.228Z,96947.70
2018-06-27T13:08:57.667Z,96948.97
2018-06-27T13:11:24.934Z,96956.04
2018-06-27T13:13:52.299Z,96947.73
2018-06-27T13:16:19.618Z,96949.97
2018-06-27T13:18:46.973Z,96923.91
2018-06-27T13:21:17.477Z,96943.55
2018-06-27T13:23:44.942Z,96947.80
2018-06-27T13:26:12.330Z,96927.67
2018-06-27T13:28:39.675Z,96925.45
2018-06-27T13:31:07.018Z,96927.31
2018-06-27T13:33:34.257Z,96928.94
2018-06-27T13:36:01.575Z,96921.75
2018-06-27T13:38:28.968Z,96928.63
2018-06-27T13:40:56.296Z,96925.82
2018-06-27T13:43:23.841Z,96917.91
2018-06-27T13:45:51.462Z,96920.53
2018-06-27T13:48:19.080Z,96910.66
2018-06-27T13:50:46.434Z,96913.70
2018-06-27T13:53:13.738Z,96907.51
2018-06-27T13:55:41.057Z,96897.90
2018-06-27T13:58:08.473Z,96910.53
2018-06-27T14:00:35.802Z,96918.95
2018-06-27T14:03:03.167Z,96917.41
2018-06-27T14:05:32.529Z,96913.73
2018-06-27T14:08:00.070Z,96911.95
2018-06-27T14:10:27.483Z,96911.84
2018-06-27T14:12:54.780Z,96909.59
2018-06-27T14:15:22.109Z,96911.19
2018-06-27T14:17:49.413Z,96907.13
2018-06-27T14:20:16.784Z,96919.56
2018-06-27T14:22:44.208Z,96910.53
2018-06-27T14:25:11.680Z,96909.20
2018-06-27T14:27:38.998Z,96906.87
2018-06-27T14:30:06.340Z,96905.44
2018-06-27T14:32:33.672Z,96903.96
2018-06-27T14:35:01.239Z,96906.22
2018-06-27T14:37:28.458Z,96896.47
2018-06-27T14:39:55.833Z,96902.33
2018-06-27T14:42:23.152Z,96906.91
2018-06-27T14:44:50.504Z,96900.51
2018-06-27T14:47:17.792Z,96901.02
2018-06-27T14:49:45.134Z,96901.80
2018-06-27T14:52:22.258Z,96893.78
2018-06-27T14:54:52.578Z,96896.00
2018-06-27T14:57:20.337Z,96890.93
2018-06-27T14:59:48.322Z,96895.03
2018-06-27T15:02:15.906Z,96896.34
2018-06-27T15:04:43.663Z,96893.79
2018-06-27T15:07:11.068Z,96885.70
2018-06-27T15:09:38.469Z,96890.54
2018-06-27T15:12:05.834Z,96885.52
2018-06-27T15:14:33.415Z,96876.83
2018-06-27T15:17:00.936Z,96879.70
2018-06-27T15:19:28.303Z,96872.52
2018-06-27T15:21:55.703Z,96873.93
2018-06-27T15:24:23.101Z,96863.49
2018-06-27T15:26:50.423Z,96868.33
2018-06-27T15:29:17.828Z,96864.52
2018-06-27T15:31:45.157Z,96864.91
2018-06-27T15:34:12.593Z,96865.06
2018-06-27T15:36:40.616Z,96866.83
2018-06-27T15:39:08.992Z,96863.00
2018-06-27T15:41:36.334Z,96862.25
2018-06-27T15:44:03.887Z,96866.09
2018-06-27T15:46:31.191Z,96855.64
2018-06-27T15:48:58.612Z,96851.38
2018-06-27T15:51:25.989Z,96850.67
2018-06-27T15:54:03.036Z,96855.77
2018-06-27T15:56:31.589Z,96859.78
2018-06-27T15:58:59.027Z,96860.88
2018-06-27T16:01:29.771Z,96857.82
2018-06-27T16:04:05.311Z,96857.27
2018-06-27T16:06:33.893Z,96858.31
2018-06-27T16:09:13.484Z,96857.95
2018-06-27T16:11:44.888Z,96854.88
2018-06-27T16:14:13.504Z,96853.75
2018-06-27T16:16:40.920Z,96858.37
2018-06-27T16:19:08.221Z,96862.89
2018-06-27T16:21:35.539Z,96829.25
2018-06-27T16:24:02.918Z,96851.02
2018-06-27T16:29:24.373Z,96847.82
2018-06-27T16:31:52.538Z,96851.30
2018-06-27T16:34:19.857Z,96846.41
2018-06-27T16:36:47.177Z,96848.28
2018-06-27T16:39:17.791Z,96849.14
2018-06-27T16:41:45.195Z,96844.05
2018-06-27T16:44:24.692Z,96850.23
2018-06-27T16:46:52.329Z,96855.39
2018-06-27T16:49:21.419Z,96850.92
2018-06-27T16:51:51.239Z,96858.22
2018-06-27T16:54:18.594Z,96856.94
2018-06-27T16:56:46.140Z,96856.20
2018-06-27T16:59:13.498Z,96860.08
2018-06-27T17:01:40.825Z,96854.99
2018-06-27T17:04:08.559Z,96861.95
2018-06-27T17:06:35.861Z,96862.61
2018-06-27T17:09:11.465Z,96863.88
2018-06-27T17:11:43.568Z,96871.84
2018-06-27T17:14:10.890Z,96868.91
2018-06-27T17:16:38.306Z,96869.14
2018-06-27T17:19:06.388Z,96865.28
2018-06-27T17:21:33.754Z,96868.09
2018-06-27T17:24:01.020Z,96870.91
2018-06-27T17:26:28.328Z,96870.14
2018-06-27T17:28:55.735Z,96871.53
2018-06-27T17:31:23.412Z,96877.88
2018-06-27T17:33:50.885Z,96865.97
2018-06-27T17:36:18.388Z,96863.87
2018-06-27T17:38:46.003Z,96866.92
2018-06-27T17:41:13.384Z,96869.06
2018-06-27T17:43:40.706Z,96871.30
2018-06-27T17:46:08.146Z,96871.30
2018-06-27T17:48:35.528Z,96874.34
2018-06-27T17:51:04.088Z,96875.52
2018-06-27T17:53:32.919Z,96876.05
2018-06-27T17:56:00.340Z,96879.09
2018-06-27T17:58:31.080Z,96877.04
2018-06-27T18:00:58.436Z,96873.38
2018-06-27T18:03:35.874Z,96879.38
2018-06-27T18:06:03.198Z,96872.74
2018-06-27T18:08:31.858Z,96873.17
2018-06-27T18:10:59.675Z,96877.19
2018-06-27T18:13:34.175Z,96877.22
2018-06-27T18:16:02.196Z,96875.70
2018-06-27T18:18:29.805Z,96878.55
2018-06-27T18:20:57.257Z,96881.89
2018-06-27T18:23:25.078Z,96873.95
2018-06-27T18:25:52.472Z,96873.91
2018-06-27T18:28:19.803Z,96878.92
2018-06-27T18:30:47.210Z,96874.28
2018-06-27T18:33:14.540Z,96882.76
2018-06-27T18:35:41.935Z,96881.75
2018-06-27T18:38:09.278Z,96880.61
2018-06-27T18:40:36.571Z,96883.61
2018-06-27T18:43:03.955Z,96883.75
2018-06-27T18:45:31.214Z,96880.09
2018-06-27T18:47:58.590Z,96891.22
2018-06-27T18:50:25.884Z,96894.73
2018-06-27T18:52:53.268Z,96891.89
2018-06-27T18:55:20.616Z,96900.52
2018-06-27T18:57:47.940Z,96899.88
2018-06-27T19:00:15.231Z,96905.02
2018-06-27T19:02:42.520Z,96902.87
2018-06-27T19:05:09.855Z,96908.30
2018-06-27T19:07:37.472Z,96905.80
2018-06-27T19:10:05.258Z,96905.77
2018-06-27T19:12:32.593Z,96905.58
2018-06-27T19:15:07.908Z,96910.05
2018-06-27T19:17:35.247Z,96907.55
2018-06-27T19:20:02.559Z,96908.38
2018-06-27T19:22:29.821Z,96915.98
2018-06-27T19:24:57.270Z,96917.95
2018-06-27T19:27:24.510Z,96890.94
2018-06-27T19:29:51.851Z,96914.36
2018-06-27T19:32:19.174Z,96920.78
2018-06-27T19:34:46.459Z,96920.78
2018-06-27T19:37:35.676Z,96919.56
2018-06-27T19:40:04.261Z,96919.28
2018-06-27T19:42:31.679Z,96918.62
2018-06-27T19:45:05.980Z,96919.91
2018-06-27T19:47:38.591Z,96837.98
2018-06-27T19:50:17.769Z,96929.95
2018-06-27T19:52:45.584Z,96933.48
2018-06-27T19:55:23.538Z,96935.14
2018-06-27T19:57:50.913Z,96932.27
2018-06-27T20:00:20.438Z,96934.39
2018-06-27T20:02:50.669Z,96938.27
2018-06-27T20:05:18.055Z,96940.22
2018-06-27T20:07:47.198Z,96937.89
2018-06-27T20:10:14.583Z,96949.09
2018-06-27T20:12:42.031Z,96943.75
2018-06-27T20:15:09.534Z,96945.73
2018-06-27T20:17:37.057Z,96949.69
2018-06-27T20:20:04.655Z,96944.99
2018-06-27T20:22:55.735Z,96956.98
2018-06-27T20:25:23.138Z,96959.58
2018-06-27T20:27:50.592Z,96965.78
2018-06-27T20:30:18.077Z,96958.44
2018-06-27T20:32:46.854Z,96966.06
2018-06-27T20:35:14.200Z,96940.34
2018-06-27T20:37:41.658Z,96961.52
2018-06-27T20:40:09.078Z,96963.77
2018-06-27T20:42:38.326Z,96968.08
2018-06-27T20:45:08.292Z,96967.69
2018-06-27T20:47:35.637Z,96974.84
2018-06-27T20:50:03.884Z,96976.76
2018-06-27T20:52:31.748Z,96973.44
2018-06-27T20:54:59.339Z,96971.91
2018-06-27T20:57:27.127Z,96972.73
2018-06-27T20:59:54.519Z,96973.38
2018-06-27T21:02:21.948Z,96978.73
2018-06-27T21:04:49.335Z,96973.60
2018-06-27T21:07:16.725Z,96979.45
2018-06-27T21:09:44.206Z,96986.00
2018-06-27T21:12:11.544Z,96985.23
2018-06-27T21:14:38.973Z,96990.53
2018-06-27T21:17:06.408Z,96986.16
2018-06-27T21:19:33.734Z,96990.43
2018-06-27T21:22:01.331Z,96994.63
2018-06-27T21:24:28.707Z,96998.44
2018-06-27T21:26:56.115Z,96997.52
2018-06-27T21:29:23.572Z,96999.96
2018-06-27T21:31:50.918Z,97000.33
2018-06-27T21:34:18.309Z,97003.27
2018-06-27T21:36:45.773Z,97000.66
2018-06-27T21:39:13.214Z,96998.78
2018-06-27T21:41:40.603Z,97003.62
2018-06-27T21:44:07.934Z,97002.45
2018-06-27T21:46:35.317Z,97002.71
2018-06-27T21:49:02.689Z,96999.17
2018-06-27T21:51:30.032Z,96999.48
2018-06-27T21:53:57.458Z,96999.02
2018-06-27T21:56:24.865Z,97004.55
2018-06-27T21:58:52.205Z,96998.64
2018-06-27T22:01:20.124Z,96996.77
2018-06-27T22:03:52.138Z,97001.23
2018-06-27T22:06:19.592Z,97001.15
2018-06-27T22:08:47.029Z,97004.98
2018-06-27T22:11:15.042Z,96978.30
2018-06-27T22:13:42.469Z,96998.23
2018-06-27T22:16:09.837Z,97002.55
2018-06-27T22:18:37.182Z,97002.33
2018-06-27T22:21:04.658Z,96998.95
2018-06-27T22:23:32.035Z,96997.27
2018-06-27T22:25:59.455Z,96996.94
2018-06-27T22:28:26.805Z,96996.84
2018-06-27T22:30:54.262Z,96998.16
2018-06-27T22:33:21.609Z,97001.78
2018-06-27T22:35:48.928Z,96998.97
2018-06-27T22:38:16.289Z,96990.95
2018-06-27T22:40:43.647Z,96996.52
2018-06-27T22:43:11.001Z,96996.22
2018-06-27T22:45:38.354Z,96995.38
2018-06-27T22:48:05.726Z,96991.39
2018-06-27T22:50:33.102Z,96995.53
2018-06-27T22:53:00.447Z,96996.69
2018-06-27T22:55:27.726Z,97002.67
2018-06-27T22:57:55.014Z,96994.70
2018-06-27T23:00:23.396Z,96995.33
2018-06-27T23:02:54.667Z,96996.08
2018-06-27T23:05:22.068Z,96997.34
2018-06-27T23:07:49.452Z,97000.64
2018-06-27T23:10:16.762Z,97005.73
2018-06-27T23:12:44.339Z,97003.45
2018-06-27T23:15:13.312Z,97005.39
2018-06-27T23:17:40.719Z,97003.73
2018-06-27T23:20:08.251Z,96999.15
2018-06-27T23:22:46.795Z,97000.13
2018-06-27T23:25:14.313Z,97002.88
2018-06-27T23:27:42.969Z,96973.03
2018-06-27T23:30:10.367Z,97000.59
2018-06-27T23:32:38.160Z,97003.62
2018-06-27T23:35:05.573Z,97000.18
2018-06-27T23:37:32.919Z,96998.91
2018-06-27T23:40:00.232Z,96995.70
2018-06-27T23:42:27.562Z,96995.55
2018-06-27T23:44:54.971Z,97009.03
2018-06-27T23:47:22.307Z,96995.86
2018-06-27T23:49:49.668Z,96995.52
2018-06-27T23:52:17.024Z,96999.12
2018-06-27T23:54:44.427Z,96995.95
2018-06-27T23:57:11.939Z,96997.84
2018-06-27T23:59:39.233Z,96995.02
